sensor_id;sensor_type;location;lat;lon;timestamp;P1;durP1;ratioP1;P2;durP2;ratioP2
6821;SDS011;3449;48.728;8.968;2023-06-24T00:01:35;6.40;;;4.53;;
6821;SDS011;3449;48.728;8.968;2023-06-24T00:04:03;6.97;;;4.67;;
6821;SDS011;3449;48.728;8.968;2023-06-24T00:06:30;12.07;;;5.00;;
6821;SDS011;3449;48.728;8.968;2023-06-24T00:08:57;11.80;;;7.60;;
6821;SDS011;3449;48.728;8.968;2023-06-24T00:11:27;8.70;;;7.87;;
6821;SDS011;3449;48.728;8.968;2023-06-24T00:13:54;12.83;;;6.63;;
6821;SDS011;3449;48.728;8.968;2023-06-24T00:16:22;7.10;;;5.50;;
6821;SDS011;3449;48.728;8.968;2023-06-24T00:18:53;8.37;;;5.23;;
6821;SDS011;3449;48.728;8.968;2023-06-24T00:21:20;9.53;;;5.40;;
6821;SDS011;3449;48.728;8.968;2023-06-24T00:23:47;10.20;;;5.77;;
6821;SDS011;3449;48.728;8.968;2023-06-24T00:26:16;9.90;;;5.90;;
6821;SDS011;3449;48.728;8.968;2023-06-24T00:28:43;8.03;;;6.57;;
6821;SDS011;3449;48.728;8.968;2023-06-24T00:31:10;8.40;;;4.83;;
6821;SDS011;3449;48.728;8.968;2023-06-24T00:33:38;13.30;;;6.80;;
6821;SDS011;3449;48.728;8.968;2023-06-24T00:36:06;10.20;;;6.90;;
6821;SDS011;3449;48.728;8.968;2023-06-24T00:38:33;9.40;;;6.70;;
6821;SDS011;3449;48.728;8.968;2023-06-24T00:41:00;10.87;;;6.63;;
6821;SDS011;3449;48.728;8.968;2023-06-24T00:43:27;6.83;;;4.80;;
6821;SDS011;3449;48.728;8.968;2023-06-24T00:45:57;8.90;;;6.03;;
6821;SDS011;3449;48.728;8.968;2023-06-24T00:48:24;10.00;;;8.63;;
6821;SDS011;3449;48.728;8.968;2023-06-24T00:50:52;15.37;;;13.00;;
6821;SDS011;3449;48.728;8.968;2023-06-24T00:53:19;8.83;;;7.07;;
6821;SDS011;3449;48.728;8.968;2023-06-24T00:55:49;9.10;;;5.37;;
6821;SDS011;3449;48.728;8.968;2023-06-24T00:58:17;12.03;;;7.77;;
6821;SDS011;3449;48.728;8.968;2023-06-24T01:00:46;8.90;;;6.20;;
6821;SDS011;3449;48.728;8.968;2023-06-24T01:03:22;9.73;;;6.30;;
6821;SDS011;3449;48.728;8.968;2023-06-24T01:05:51;10.90;;;5.93;;
6821;SDS011;3449;48.728;8.968;2023-06-24T01:08:20;11.30;;;8.23;;
6821;SDS011;3449;48.728;8.968;2023-06-24T01:10:48;9.53;;;7.50;;
6821;SDS011;3449;48.728;8.968;2023-06-24T01:13:15;13.60;;;8.63;;
6821;SDS011;3449;48.728;8.968;2023-06-24T01:15:42;12.20;;;7.27;;
6821;SDS011;3449;48.728;8.968;2023-06-24T01:18:11;8.67;;;6.10;;
6821;SDS011;3449;48.728;8.968;2023-06-24T01:20:48;10.37;;;6.50;;
6821;SDS011;3449;48.728;8.968;2023-06-24T01:23:35;14.40;;;10.30;;
6821;SDS011;3449;48.728;8.968;2023-06-24T01:26:46;10.37;;;6.60;;
6821;SDS011;3449;48.728;8.968;2023-06-24T01:29:40;9.20;;;7.13;;
6821;SDS011;3449;48.728;8.968;2023-06-24T01:32:21;10.97;;;8.10;;
6821;SDS011;3449;48.728;8.968;2023-06-24T01:34:55;10.43;;;6.00;;
6821;SDS011;3449;48.728;8.968;2023-06-24T01:37:25;10.10;;;7.03;;
6821;SDS011;3449;48.728;8.968;2023-06-24T01:40:01;17.93;;;15.13;;
6821;SDS011;3449;48.728;8.968;2023-06-24T01:42:35;12.77;;;10.73;;
6821;SDS011;3449;48.728;8.968;2023-06-24T01:45:13;10.97;;;9.80;;
6821;SDS011;3449;48.728;8.968;2023-06-24T01:47:44;12.93;;;7.60;;
6821;SDS011;3449;48.728;8.968;2023-06-24T01:50:14;8.40;;;6.20;;
6821;SDS011;3449;48.728;8.968;2023-06-24T01:52:46;9.70;;;6.30;;
6821;SDS011;3449;48.728;8.968;2023-06-24T01:55:17;11.13;;;7.33;;
6821;SDS011;3449;48.728;8.968;2023-06-24T01:57:50;8.80;;;6.47;;
6821;SDS011;3449;48.728;8.968;2023-06-24T02:00:18;9.43;;;7.97;;
6821;SDS011;3449;48.728;8.968;2023-06-24T02:02:48;12.37;;;7.07;;
6821;SDS011;3449;48.728;8.968;2023-06-24T02:05:17;6.67;;;5.97;;
6821;SDS011;3449;48.728;8.968;2023-06-24T02:07:46;19.37;;;10.73;;
6821;SDS011;3449;48.728;8.968;2023-06-24T02:10:14;15.07;;;12.10;;
6821;SDS011;3449;48.728;8.968;2023-06-24T02:12:43;14.03;;;12.50;;
6821;SDS011;3449;48.728;8.968;2023-06-24T02:15:11;7.17;;;5.83;;
6821;SDS011;3449;48.728;8.968;2023-06-24T02:17:38;13.37;;;8.83;;
6821;SDS011;3449;48.728;8.968;2023-06-24T02:20:07;10.70;;;9.00;;
6821;SDS011;3449;48.728;8.968;2023-06-24T02:22:40;12.43;;;7.23;;
6821;SDS011;3449;48.728;8.968;2023-06-24T02:25:07;8.53;;;7.43;;
6821;SDS011;3449;48.728;8.968;2023-06-24T02:27:35;10.57;;;9.47;;
6821;SDS011;3449;48.728;8.968;2023-06-24T02:30:03;16.40;;;9.03;;
6821;SDS011;3449;48.728;8.968;2023-06-24T02:32:35;10.87;;;8.43;;
6821;SDS011;3449;48.728;8.968;2023-06-24T02:35:03;11.30;;;7.60;;
6821;SDS011;3449;48.728;8.968;2023-06-24T02:37:33;11.23;;;5.63;;
6821;SDS011;3449;48.728;8.968;2023-06-24T02:40:00;23.60;;;12.90;;
6821;SDS011;3449;48.728;8.968;2023-06-24T02:42:29;12.07;;;9.67;;
6821;SDS011;3449;48.728;8.968;2023-06-24T02:44:56;14.43;;;7.57;;
6821;SDS011;3449;48.728;8.968;2023-06-24T02:47:23;15.73;;;7.20;;
6821;SDS011;3449;48.728;8.968;2023-06-24T02:49:51;12.77;;;8.37;;
6821;SDS011;3449;48.728;8.968;2023-06-24T02:52:19;12.20;;;9.80;;
6821;SDS011;3449;48.728;8.968;2023-06-24T02:54:50;9.97;;;8.50;;
6821;SDS011;3449;48.728;8.968;2023-06-24T02:57:17;14.40;;;7.10;;
6821;SDS011;3449;48.728;8.968;2023-06-24T02:59:45;13.00;;;9.40;;
6821;SDS011;3449;48.728;8.968;2023-06-24T03:02:13;13.13;;;8.70;;
6821;SDS011;3449;48.728;8.968;2023-06-24T03:04:43;10.47;;;7.23;;
6821;SDS011;3449;48.728;8.968;2023-06-24T03:07:11;12.33;;;8.83;;
6821;SDS011;3449;48.728;8.968;2023-06-24T03:09:38;13.73;;;8.30;;
6821;SDS011;3449;48.728;8.968;2023-06-24T03:12:07;12.17;;;10.40;;
6821;SDS011;3449;48.728;8.968;2023-06-24T03:14:34;13.23;;;9.50;;
6821;SDS011;3449;48.728;8.968;2023-06-24T03:17:01;13.43;;;10.43;;
6821;SDS011;3449;48.728;8.968;2023-06-24T03:19:28;11.67;;;7.50;;
6821;SDS011;3449;48.728;8.968;2023-06-24T03:21:55;9.20;;;7.50;;
6821;SDS011;3449;48.728;8.968;2023-06-24T03:24:22;12.03;;;8.70;;
6821;SDS011;3449;48.728;8.968;2023-06-24T03:26:49;15.27;;;10.17;;
6821;SDS011;3449;48.728;8.968;2023-06-24T03:29:23;13.40;;;11.33;;
6821;SDS011;3449;48.728;8.968;2023-06-24T03:31:49;23.33;;;15.00;;
6821;SDS011;3449;48.728;8.968;2023-06-24T03:34:16;15.80;;;14.10;;
6821;SDS011;3449;48.728;8.968;2023-06-24T03:36:43;17.93;;;11.77;;
6821;SDS011;3449;48.728;8.968;2023-06-24T03:39:10;9.87;;;7.70;;
6821;SDS011;3449;48.728;8.968;2023-06-24T03:41:37;14.83;;;9.40;;
6821;SDS011;3449;48.728;8.968;2023-06-24T03:44:05;9.60;;;6.60;;
6821;SDS011;3449;48.728;8.968;2023-06-24T03:46:35;12.00;;;9.87;;
6821;SDS011;3449;48.728;8.968;2023-06-24T03:49:05;10.87;;;9.43;;
6821;SDS011;3449;48.728;8.968;2023-06-24T03:51:32;11.47;;;6.70;;
6821;SDS011;3449;48.728;8.968;2023-06-24T03:53:59;16.33;;;11.00;;
6821;SDS011;3449;48.728;8.968;2023-06-24T03:56:26;14.23;;;10.67;;
6821;SDS011;3449;48.728;8.968;2023-06-24T03:58:53;9.87;;;6.57;;
6821;SDS011;3449;48.728;8.968;2023-06-24T04:01:19;13.33;;;6.43;;
6821;SDS011;3449;48.728;8.968;2023-06-24T04:03:48;18.30;;;14.13;;
6821;SDS011;3449;48.728;8.968;2023-06-24T04:06:15;18.10;;;14.67;;
6821;SDS011;3449;48.728;8.968;2023-06-24T04:08:41;12.20;;;6.70;;
6821;SDS011;3449;48.728;8.968;2023-06-24T04:11:09;11.00;;;7.30;;
6821;SDS011;3449;48.728;8.968;2023-06-24T04:13:36;14.67;;;9.70;;
6821;SDS011;3449;48.728;8.968;2023-06-24T04:16:03;25.97;;;13.67;;
6821;SDS011;3449;48.728;8.968;2023-06-24T04:18:30;13.07;;;9.70;;
6821;SDS011;3449;48.728;8.968;2023-06-24T04:20:58;12.63;;;10.60;;
6821;SDS011;3449;48.728;8.968;2023-06-24T04:23:25;16.10;;;12.53;;
6821;SDS011;3449;48.728;8.968;2023-06-24T04:25:52;14.83;;;12.83;;
6821;SDS011;3449;48.728;8.968;2023-06-24T04:28:19;16.90;;;14.40;;
6821;SDS011;3449;48.728;8.968;2023-06-24T04:30:46;19.47;;;10.33;;
6821;SDS011;3449;48.728;8.968;2023-06-24T04:33:13;20.00;;;10.53;;
6821;SDS011;3449;48.728;8.968;2023-06-24T04:35:39;17.83;;;14.60;;
6821;SDS011;3449;48.728;8.968;2023-06-24T04:38:08;11.20;;;7.23;;
6821;SDS011;3449;48.728;8.968;2023-06-24T04:40:35;12.87;;;10.00;;
6821;SDS011;3449;48.728;8.968;2023-06-24T04:43:02;18.93;;;17.00;;
6821;SDS011;3449;48.728;8.968;2023-06-24T04:45:29;10.43;;;8.27;;
6821;SDS011;3449;48.728;8.968;2023-06-24T04:47:56;13.70;;;9.53;;
6821;SDS011;3449;48.728;8.968;2023-06-24T04:50:22;12.53;;;7.83;;
6821;SDS011;3449;48.728;8.968;2023-06-24T04:52:51;18.67;;;15.03;;
6821;SDS011;3449;48.728;8.968;2023-06-24T04:55:21;24.33;;;17.13;;
6821;SDS011;3449;48.728;8.968;2023-06-24T04:57:48;17.93;;;14.00;;
6821;SDS011;3449;48.728;8.968;2023-06-24T05:00:15;20.03;;;9.77;;
6821;SDS011;3449;48.728;8.968;2023-06-24T05:02:42;11.87;;;8.63;;
6821;SDS011;3449;48.728;8.968;2023-06-24T05:05:10;11.33;;;7.90;;
6821;SDS011;3449;48.728;8.968;2023-06-24T05:07:37;23.07;;;18.47;;
6821;SDS011;3449;48.728;8.968;2023-06-24T05:10:04;18.03;;;11.73;;
6821;SDS011;3449;48.728;8.968;2023-06-24T05:12:35;10.40;;;7.60;;
6821;SDS011;3449;48.728;8.968;2023-06-24T05:15:02;19.73;;;10.03;;
6821;SDS011;3449;48.728;8.968;2023-06-24T05:17:30;12.80;;;8.07;;
6821;SDS011;3449;48.728;8.968;2023-06-24T05:19:57;14.33;;;11.03;;
6821;SDS011;3449;48.728;8.968;2023-06-24T05:22:23;12.00;;;8.50;;
6821;SDS011;3449;48.728;8.968;2023-06-24T05:24:50;13.20;;;8.40;;
6821;SDS011;3449;48.728;8.968;2023-06-24T05:27:17;10.60;;;7.50;;
6821;SDS011;3449;48.728;8.968;2023-06-24T05:29:45;14.30;;;7.90;;
6821;SDS011;3449;48.728;8.968;2023-06-24T05:32:15;14.10;;;9.33;;
6821;SDS011;3449;48.728;8.968;2023-06-24T05:34:45;11.80;;;7.87;;
6821;SDS011;3449;48.728;8.968;2023-06-24T05:37:12;15.07;;;10.40;;
6821;SDS011;3449;48.728;8.968;2023-06-24T05:39:39;9.43;;;7.47;;
6821;SDS011;3449;48.728;8.968;2023-06-24T05:42:05;8.80;;;7.80;;
6821;SDS011;3449;48.728;8.968;2023-06-24T05:44:32;11.60;;;5.50;;
6821;SDS011;3449;48.728;8.968;2023-06-24T05:47:01;9.00;;;6.03;;
6821;SDS011;3449;48.728;8.968;2023-06-24T05:49:28;9.60;;;5.90;;
6821;SDS011;3449;48.728;8.968;2023-06-24T05:51:55;13.17;;;9.60;;
6821;SDS011;3449;48.728;8.968;2023-06-24T05:54:22;9.20;;;6.43;;
6821;SDS011;3449;48.728;8.968;2023-06-24T05:56:49;8.40;;;6.20;;
6821;SDS011;3449;48.728;8.968;2023-06-24T05:59:16;10.67;;;8.43;;
6821;SDS011;3449;48.728;8.968;2023-06-24T06:01:45;11.80;;;5.97;;
6821;SDS011;3449;48.728;8.968;2023-06-24T06:04:13;7.60;;;4.83;;
6821;SDS011;3449;48.728;8.968;2023-06-24T06:06:42;8.50;;;5.80;;
6821;SDS011;3449;48.728;8.968;2023-06-24T06:09:09;10.30;;;6.10;;
6821;SDS011;3449;48.728;8.968;2023-06-24T06:11:36;10.77;;;5.77;;
6821;SDS011;3449;48.728;8.968;2023-06-24T06:14:02;9.97;;;6.30;;
6821;SDS011;3449;48.728;8.968;2023-06-24T06:16:29;9.83;;;8.03;;
6821;SDS011;3449;48.728;8.968;2023-06-24T06:18:56;7.50;;;5.90;;
6821;SDS011;3449;48.728;8.968;2023-06-24T06:21:25;7.37;;;5.53;;
6821;SDS011;3449;48.728;8.968;2023-06-24T06:23:52;9.73;;;6.70;;
6821;SDS011;3449;48.728;8.968;2023-06-24T06:26:18;9.83;;;7.77;;
6821;SDS011;3449;48.728;8.968;2023-06-24T06:28:45;10.53;;;5.73;;
6821;SDS011;3449;48.728;8.968;2023-06-24T06:31:13;9.77;;;6.53;;
6821;SDS011;3449;48.728;8.968;2023-06-24T06:33:41;9.23;;;6.80;;
6821;SDS011;3449;48.728;8.968;2023-06-24T06:36:08;9.63;;;4.80;;
6821;SDS011;3449;48.728;8.968;2023-06-24T06:38:36;9.10;;;5.77;;
6821;SDS011;3449;48.728;8.968;2023-06-24T06:41:03;8.03;;;6.10;;
6821;SDS011;3449;48.728;8.968;2023-06-24T06:43:30;6.57;;;5.33;;
6821;SDS011;3449;48.728;8.968;2023-06-24T06:45:57;8.40;;;6.20;;
6821;SDS011;3449;48.728;8.968;2023-06-24T06:48:24;5.30;;;4.37;;
6821;SDS011;3449;48.728;8.968;2023-06-24T06:50:50;9.13;;;5.47;;
6821;SDS011;3449;48.728;8.968;2023-06-24T06:53:18;6.77;;;4.40;;
6821;SDS011;3449;48.728;8.968;2023-06-24T06:55:46;5.63;;;4.23;;
6821;SDS011;3449;48.728;8.968;2023-06-24T06:58:13;6.23;;;4.07;;
6821;SDS011;3449;48.728;8.968;2023-06-24T07:00:40;7.60;;;4.23;;
6821;SDS011;3449;48.728;8.968;2023-06-24T07:03:09;11.67;;;4.17;;
6821;SDS011;3449;48.728;8.968;2023-06-24T07:05:36;7.37;;;4.37;;
6821;SDS011;3449;48.728;8.968;2023-06-24T07:08:03;4.70;;;3.60;;
6821;SDS011;3449;48.728;8.968;2023-06-24T07:10:31;6.80;;;4.10;;
6821;SDS011;3449;48.728;8.968;2023-06-24T07:12:59;5.90;;;4.07;;
6821;SDS011;3449;48.728;8.968;2023-06-24T07:15:26;6.90;;;3.73;;
6821;SDS011;3449;48.728;8.968;2023-06-24T07:17:53;5.63;;;4.17;;
6821;SDS011;3449;48.728;8.968;2023-06-24T07:20:21;5.90;;;3.90;;
6821;SDS011;3449;48.728;8.968;2023-06-24T07:22:48;6.50;;;3.67;;
6821;SDS011;3449;48.728;8.968;2023-06-24T07:25:15;5.70;;;4.30;;
6821;SDS011;3449;48.728;8.968;2023-06-24T07:27:42;6.60;;;3.67;;
6821;SDS011;3449;48.728;8.968;2023-06-24T07:30:10;6.23;;;4.00;;
6821;SDS011;3449;48.728;8.968;2023-06-24T07:32:37;4.30;;;3.27;;
6821;SDS011;3449;48.728;8.968;2023-06-24T07:35:05;5.30;;;3.47;;
6821;SDS011;3449;48.728;8.968;2023-06-24T07:37:33;3.90;;;3.17;;
6821;SDS011;3449;48.728;8.968;2023-06-24T07:40:00;5.90;;;4.00;;
6821;SDS011;3449;48.728;8.968;2023-06-24T07:42:28;7.67;;;3.77;;
6821;SDS011;3449;48.728;8.968;2023-06-24T07:44:55;5.97;;;3.53;;
6821;SDS011;3449;48.728;8.968;2023-06-24T07:47:23;4.93;;;3.10;;
6821;SDS011;3449;48.728;8.968;2023-06-24T07:49:51;4.40;;;3.27;;
6821;SDS011;3449;48.728;8.968;2023-06-24T07:52:18;4.33;;;3.87;;
6821;SDS011;3449;48.728;8.968;2023-06-24T07:54:44;6.73;;;3.67;;
6821;SDS011;3449;48.728;8.968;2023-06-24T07:57:11;6.33;;;3.50;;
6821;SDS011;3449;48.728;8.968;2023-06-24T07:59:38;9.43;;;5.00;;
6821;SDS011;3449;48.728;8.968;2023-06-24T08:02:05;4.53;;;3.70;;
6821;SDS011;3449;48.728;8.968;2023-06-24T08:04:33;6.70;;;4.10;;
6821;SDS011;3449;48.728;8.968;2023-06-24T08:07:00;3.80;;;3.20;;
6821;SDS011;3449;48.728;8.968;2023-06-24T08:09:28;5.97;;;3.67;;
6821;SDS011;3449;48.728;8.968;2023-06-24T08:11:55;4.57;;;3.50;;
6821;SDS011;3449;48.728;8.968;2023-06-24T08:14:22;7.93;;;4.10;;
6821;SDS011;3449;48.728;8.968;2023-06-24T08:16:49;4.97;;;3.57;;
6821;SDS011;3449;48.728;8.968;2023-06-24T08:19:17;4.03;;;3.20;;
6821;SDS011;3449;48.728;8.968;2023-06-24T08:21:45;6.53;;;2.83;;
6821;SDS011;3449;48.728;8.968;2023-06-24T08:24:12;3.50;;;2.93;;
6821;SDS011;3449;48.728;8.968;2023-06-24T08:26:39;5.10;;;3.60;;
6821;SDS011;3449;48.728;8.968;2023-06-24T08:29:06;3.50;;;2.77;;
6821;SDS011;3449;48.728;8.968;2023-06-24T08:31:33;3.33;;;3.03;;
6821;SDS011;3449;48.728;8.968;2023-06-24T08:34:00;4.40;;;3.20;;
6821;SDS011;3449;48.728;8.968;2023-06-24T08:36:27;4.40;;;3.30;;
6821;SDS011;3449;48.728;8.968;2023-06-24T08:38:58;6.53;;;2.90;;
6821;SDS011;3449;48.728;8.968;2023-06-24T08:41:25;4.07;;;3.40;;
6821;SDS011;3449;48.728;8.968;2023-06-24T08:43:52;4.30;;;3.30;;
6821;SDS011;3449;48.728;8.968;2023-06-24T08:46:19;3.03;;;2.73;;
6821;SDS011;3449;48.728;8.968;2023-06-24T08:48:48;4.20;;;2.90;;
6821;SDS011;3449;48.728;8.968;2023-06-24T08:51:17;3.33;;;3.03;;
6821;SDS011;3449;48.728;8.968;2023-06-24T08:53:46;4.30;;;2.90;;
6821;SDS011;3449;48.728;8.968;2023-06-24T08:56:17;4.07;;;3.03;;
6821;SDS011;3449;48.728;8.968;2023-06-24T08:58:44;4.17;;;3.40;;
6821;SDS011;3449;48.728;8.968;2023-06-24T09:01:11;5.57;;;3.07;;
6821;SDS011;3449;48.728;8.968;2023-06-24T09:03:38;3.43;;;2.77;;
6821;SDS011;3449;48.728;8.968;2023-06-24T09:06:05;4.10;;;2.97;;
6821;SDS011;3449;48.728;8.968;2023-06-24T09:08:32;3.90;;;2.77;;
6821;SDS011;3449;48.728;8.968;2023-06-24T09:11:04;5.17;;;3.53;;
6821;SDS011;3449;48.728;8.968;2023-06-24T09:13:36;4.47;;;3.17;;
6821;SDS011;3449;48.728;8.968;2023-06-24T09:16:12;3.23;;;2.80;;
6821;SDS011;3449;48.728;8.968;2023-06-24T09:18:40;3.53;;;3.20;;
6821;SDS011;3449;48.728;8.968;2023-06-24T09:21:07;3.60;;;3.03;;
6821;SDS011;3449;48.728;8.968;2023-06-24T09:23:37;3.00;;;2.70;;
6821;SDS011;3449;48.728;8.968;2023-06-24T09:26:05;2.60;;;2.33;;
6821;SDS011;3449;48.728;8.968;2023-06-24T09:28:40;3.67;;;2.30;;
6821;SDS011;3449;48.728;8.968;2023-06-24T09:31:07;3.13;;;2.43;;
6821;SDS011;3449;48.728;8.968;2023-06-24T09:33:34;4.60;;;3.20;;
6821;SDS011;3449;48.728;8.968;2023-06-24T09:36:02;6.97;;;2.80;;
6821;SDS011;3449;48.728;8.968;2023-06-24T09:38:33;4.07;;;2.33;;
6821;SDS011;3449;48.728;8.968;2023-06-24T09:41:04;4.80;;;2.80;;
6821;SDS011;3449;48.728;8.968;2023-06-24T09:43:33;2.90;;;2.40;;
6821;SDS011;3449;48.728;8.968;2023-06-24T09:46:03;4.83;;;2.77;;
6821;SDS011;3449;48.728;8.968;2023-06-24T09:48:30;3.33;;;3.03;;
6821;SDS011;3449;48.728;8.968;2023-06-24T09:50:58;3.23;;;2.60;;
6821;SDS011;3449;48.728;8.968;2023-06-24T09:53:27;3.83;;;2.70;;
6821;SDS011;3449;48.728;8.968;2023-06-24T09:55:56;2.80;;;2.60;;
6821;SDS011;3449;48.728;8.968;2023-06-24T09:58:24;2.30;;;2.10;;
6821;SDS011;3449;48.728;8.968;2023-06-24T10:00:51;5.07;;;2.90;;
6821;SDS011;3449;48.728;8.968;2023-06-24T10:03:21;3.00;;;2.70;;
6821;SDS011;3449;48.728;8.968;2023-06-24T10:05:49;4.10;;;2.63;;
6821;SDS011;3449;48.728;8.968;2023-06-24T10:08:16;4.53;;;2.43;;
6821;SDS011;3449;48.728;8.968;2023-06-24T10:10:45;3.80;;;2.87;;
6821;SDS011;3449;48.728;8.968;2023-06-24T10:13:12;3.10;;;2.60;;
6821;SDS011;3449;48.728;8.968;2023-06-24T10:15:39;3.10;;;2.30;;
6821;SDS011;3449;48.728;8.968;2023-06-24T10:21:01;4.10;;;2.60;;
6821;SDS011;3449;48.728;8.968;2023-06-24T10:23:31;3.50;;;2.40;;
6821;SDS011;3449;48.728;8.968;2023-06-24T10:26:07;4.17;;;2.90;;
6821;SDS011;3449;48.728;8.968;2023-06-24T10:31:53;3.77;;;2.90;;
6821;SDS011;3449;48.728;8.968;2023-06-24T10:34:24;3.13;;;2.83;;
6821;SDS011;3449;48.728;8.968;2023-06-24T10:36:54;2.20;;;1.83;;
6821;SDS011;3449;48.728;8.968;2023-06-24T10:39:40;2.47;;;2.23;;
6821;SDS011;3449;48.728;8.968;2023-06-24T10:45:15;2.30;;;2.10;;
6821;SDS011;3449;48.728;8.968;2023-06-24T10:47:46;3.97;;;2.43;;
6821;SDS011;3449;48.728;8.968;2023-06-24T10:50:17;4.00;;;2.90;;
6821;SDS011;3449;48.728;8.968;2023-06-24T10:52:46;4.30;;;2.73;;
6821;SDS011;3449;48.728;8.968;2023-06-24T10:55:14;3.23;;;2.37;;
6821;SDS011;3449;48.728;8.968;2023-06-24T10:57:42;3.40;;;2.93;;
6821;SDS011;3449;48.728;8.968;2023-06-24T11:00:10;4.60;;;2.87;;
6821;SDS011;3449;48.728;8.968;2023-06-24T11:02:37;3.67;;;2.80;;
6821;SDS011;3449;48.728;8.968;2023-06-24T11:05:05;3.90;;;2.43;;
6821;SDS011;3449;48.728;8.968;2023-06-24T11:07:34;3.10;;;2.57;;
6821;SDS011;3449;48.728;8.968;2023-06-24T11:10:04;3.20;;;2.50;;
6821;SDS011;3449;48.728;8.968;2023-06-24T11:12:33;4.40;;;2.37;;
6821;SDS011;3449;48.728;8.968;2023-06-24T11:15:02;2.60;;;2.20;;
6821;SDS011;3449;48.728;8.968;2023-06-24T11:17:33;2.43;;;2.23;;
6821;SDS011;3449;48.728;8.968;2023-06-24T11:20:00;2.70;;;2.30;;
6821;SDS011;3449;48.728;8.968;2023-06-24T11:22:28;3.33;;;2.80;;
6821;SDS011;3449;48.728;8.968;2023-06-24T11:24:56;3.20;;;2.80;;
6821;SDS011;3449;48.728;8.968;2023-06-24T11:27:24;3.70;;;2.50;;
6821;SDS011;3449;48.728;8.968;2023-06-24T11:29:52;2.90;;;2.43;;
6821;SDS011;3449;48.728;8.968;2023-06-24T11:32:20;3.00;;;2.67;;
6821;SDS011;3449;48.728;8.968;2023-06-24T11:34:47;3.43;;;2.53;;
6821;SDS011;3449;48.728;8.968;2023-06-24T11:37:14;2.60;;;2.40;;
6821;SDS011;3449;48.728;8.968;2023-06-24T11:39:43;3.60;;;2.13;;
6821;SDS011;3449;48.728;8.968;2023-06-24T11:42:11;2.77;;;2.43;;
6821;SDS011;3449;48.728;8.968;2023-06-24T11:44:42;2.20;;;1.90;;
6821;SDS011;3449;48.728;8.968;2023-06-24T11:47:09;3.07;;;2.60;;
6821;SDS011;3449;48.728;8.968;2023-06-24T11:52:27;2.67;;;2.43;;
6821;SDS011;3449;48.728;8.968;2023-06-24T11:54:58;3.33;;;2.40;;
6821;SDS011;3449;48.728;8.968;2023-06-24T12:00:14;3.53;;;2.37;;
6821;SDS011;3449;48.728;8.968;2023-06-24T12:02:42;2.90;;;2.20;;
6821;SDS011;3449;48.728;8.968;2023-06-24T12:05:09;2.80;;;2.60;;
6821;SDS011;3449;48.728;8.968;2023-06-24T12:07:35;2.60;;;2.20;;
6821;SDS011;3449;48.728;8.968;2023-06-24T12:10:03;2.03;;;1.83;;
6821;SDS011;3449;48.728;8.968;2023-06-24T12:12:30;2.40;;;2.20;;
6821;SDS011;3449;48.728;8.968;2023-06-24T12:14:58;4.57;;;2.50;;
6821;SDS011;3449;48.728;8.968;2023-06-24T12:17:25;3.07;;;2.00;;
6821;SDS011;3449;48.728;8.968;2023-06-24T12:19:52;3.73;;;2.03;;
6821;SDS011;3449;48.728;8.968;2023-06-24T12:22:19;3.70;;;2.37;;
6821;SDS011;3449;48.728;8.968;2023-06-24T12:24:46;2.33;;;2.13;;
6821;SDS011;3449;48.728;8.968;2023-06-24T12:27:13;3.37;;;2.20;;
6821;SDS011;3449;48.728;8.968;2023-06-24T12:29:40;3.63;;;2.57;;
6821;SDS011;3449;48.728;8.968;2023-06-24T12:32:08;2.20;;;1.90;;
6821;SDS011;3449;48.728;8.968;2023-06-24T12:34:35;2.60;;;1.90;;
6821;SDS011;3449;48.728;8.968;2023-06-24T12:37:02;6.87;;;2.17;;
6821;SDS011;3449;48.728;8.968;2023-06-24T12:39:29;2.63;;;2.43;;
6821;SDS011;3449;48.728;8.968;2023-06-24T12:41:58;4.63;;;2.10;;
6821;SDS011;3449;48.728;8.968;2023-06-24T12:44:24;3.77;;;2.23;;
6821;SDS011;3449;48.728;8.968;2023-06-24T12:46:52;2.40;;;2.20;;
6821;SDS011;3449;48.728;8.968;2023-06-24T12:49:20;2.67;;;2.43;;
6821;SDS011;3449;48.728;8.968;2023-06-24T12:51:47;4.07;;;2.40;;
6821;SDS011;3449;48.728;8.968;2023-06-24T12:54:14;2.77;;;1.93;;
6821;SDS011;3449;48.728;8.968;2023-06-24T12:56:41;3.30;;;3.00;;
6821;SDS011;3449;48.728;8.968;2023-06-24T12:59:08;4.17;;;2.57;;
6821;SDS011;3449;48.728;8.968;2023-06-24T13:01:35;2.50;;;2.30;;
6821;SDS011;3449;48.728;8.968;2023-06-24T13:04:02;5.40;;;2.00;;
6821;SDS011;3449;48.728;8.968;2023-06-24T13:06:30;2.33;;;2.10;;
6821;SDS011;3449;48.728;8.968;2023-06-24T13:08:57;2.77;;;2.00;;
6821;SDS011;3449;48.728;8.968;2023-06-24T13:11:24;2.40;;;2.20;;
6821;SDS011;3449;48.728;8.968;2023-06-24T13:13:51;2.13;;;1.97;;
6821;SDS011;3449;48.728;8.968;2023-06-24T13:16:18;2.30;;;2.10;;
6821;SDS011;3449;48.728;8.968;2023-06-24T13:18:45;3.50;;;2.50;;
6821;SDS011;3449;48.728;8.968;2023-06-24T13:21:11;4.33;;;2.20;;
6821;SDS011;3449;48.728;8.968;2023-06-24T13:23:40;3.50;;;2.67;;
6821;SDS011;3449;48.728;8.968;2023-06-24T13:26:07;4.80;;;2.53;;
6821;SDS011;3449;48.728;8.968;2023-06-24T13:28:35;2.63;;;2.43;;
6821;SDS011;3449;48.728;8.968;2023-06-24T13:31:02;2.23;;;2.00;;
6821;SDS011;3449;48.728;8.968;2023-06-24T13:33:29;2.43;;;2.23;;
6821;SDS011;3449;48.728;8.968;2023-06-24T13:35:56;3.50;;;2.23;;
6821;SDS011;3449;48.728;8.968;2023-06-24T13:38:23;1.80;;;1.70;;
6821;SDS011;3449;48.728;8.968;2023-06-24T13:40:52;3.90;;;2.70;;
6821;SDS011;3449;48.728;8.968;2023-06-24T13:43:19;2.60;;;2.20;;
6821;SDS011;3449;48.728;8.968;2023-06-24T13:45:48;2.40;;;2.20;;
6821;SDS011;3449;48.728;8.968;2023-06-24T13:48:15;2.63;;;1.90;;
6821;SDS011;3449;48.728;8.968;2023-06-24T13:50:42;3.07;;;2.70;;
6821;SDS011;3449;48.728;8.968;2023-06-24T13:53:08;2.50;;;2.30;;
6821;SDS011;3449;48.728;8.968;2023-06-24T13:55:35;2.97;;;2.53;;
6821;SDS011;3449;48.728;8.968;2023-06-24T13:58:04;3.53;;;2.57;;
6821;SDS011;3449;48.728;8.968;2023-06-24T14:00:30;4.20;;;2.67;;
6821;SDS011;3449;48.728;8.968;2023-06-24T14:02:57;2.47;;;2.27;;
6821;SDS011;3449;48.728;8.968;2023-06-24T14:05:24;4.07;;;2.20;;
6821;SDS011;3449;48.728;8.968;2023-06-24T14:07:51;2.50;;;2.30;;
6821;SDS011;3449;48.728;8.968;2023-06-24T14:10:18;2.30;;;2.10;;
6821;SDS011;3449;48.728;8.968;2023-06-24T14:12:45;3.57;;;2.70;;
6821;SDS011;3449;48.728;8.968;2023-06-24T14:15:13;2.73;;;2.37;;
6821;SDS011;3449;48.728;8.968;2023-06-24T14:17:40;2.37;;;2.07;;
6821;SDS011;3449;48.728;8.968;2023-06-24T14:20:08;3.00;;;2.23;;
6821;SDS011;3449;48.728;8.968;2023-06-24T14:22:35;2.60;;;2.13;;
6821;SDS011;3449;48.728;8.968;2023-06-24T14:25:02;3.27;;;2.40;;
6821;SDS011;3449;48.728;8.968;2023-06-24T14:27:30;4.20;;;2.37;;
6821;SDS011;3449;48.728;8.968;2023-06-24T14:29:57;2.33;;;2.13;;
6821;SDS011;3449;48.728;8.968;2023-06-24T14:32:25;4.43;;;2.50;;
6821;SDS011;3449;48.728;8.968;2023-06-24T14:34:52;2.60;;;2.40;;
6821;SDS011;3449;48.728;8.968;2023-06-24T14:37:19;1.80;;;1.70;;
6821;SDS011;3449;48.728;8.968;2023-06-24T14:39:46;3.70;;;1.90;;
6821;SDS011;3449;48.728;8.968;2023-06-24T14:42:12;9.20;;;2.40;;
6821;SDS011;3449;48.728;8.968;2023-06-24T14:44:39;2.40;;;2.20;;
6821;SDS011;3449;48.728;8.968;2023-06-24T14:47:06;4.30;;;2.80;;
6821;SDS011;3449;48.728;8.968;2023-06-24T14:49:35;3.93;;;3.40;;
6821;SDS011;3449;48.728;8.968;2023-06-24T14:52:01;4.20;;;2.63;;
6821;SDS011;3449;48.728;8.968;2023-06-24T14:54:29;2.80;;;2.17;;
6821;SDS011;3449;48.728;8.968;2023-06-24T14:56:55;2.70;;;2.20;;
6821;SDS011;3449;48.728;8.968;2023-06-24T14:59:22;3.00;;;2.63;;
6821;SDS011;3449;48.728;8.968;2023-06-24T15:01:49;3.27;;;2.53;;
6821;SDS011;3449;48.728;8.968;2023-06-24T15:04:16;2.83;;;2.50;;
6821;SDS011;3449;48.728;8.968;2023-06-24T15:06:44;2.20;;;1.90;;
6821;SDS011;3449;48.728;8.968;2023-06-24T15:09:11;2.43;;;2.17;;
6821;SDS011;3449;48.728;8.968;2023-06-24T15:11:38;2.83;;;2.03;;
6821;SDS011;3449;48.728;8.968;2023-06-24T15:14:07;2.67;;;1.90;;
6821;SDS011;3449;48.728;8.968;2023-06-24T15:16:34;3.43;;;2.30;;
6821;SDS011;3449;48.728;8.968;2023-06-24T15:19:01;3.57;;;2.33;;
6821;SDS011;3449;48.728;8.968;2023-06-24T15:21:28;2.10;;;1.87;;
6821;SDS011;3449;48.728;8.968;2023-06-24T15:23:56;2.93;;;2.33;;
6821;SDS011;3449;48.728;8.968;2023-06-24T15:26:23;4.37;;;2.70;;
6821;SDS011;3449;48.728;8.968;2023-06-24T15:28:50;2.13;;;1.93;;
6821;SDS011;3449;48.728;8.968;2023-06-24T15:31:17;2.97;;;2.67;;